Terminal Aerodrome Forecast
Issued by NWS

Home | Current Version | Previous Version | Text Only | Print | Product List | Glossary On
Versions: 1 2 3 4 5 6 7 8 9 10 11 12 13 14 15 16 17 18 19 20 21 22 23 24 25 26 27 28 29 30 31 32 33 34 35 36 37
000
FTUS45 KGJT 040533
TAFASE
TAF
KASE 040533Z 0406/0506 21005KT P6SM VCSH BKN080 BKN110
     FM041000 20005KT P6SM SCT080 BKN120
     FM041200 04004KT P6SM SCT090 BKN150
     FM041800 33006KT P6SM VCSH BKN080
     FM042100 26007KT P6SM VCTS SCT050 BKN100CB
     FM050200 17005KT P6SM VCSH SCT050 BKN080=

USA.gov is the U.S. government's official web portal to all federal, state and local government web resources and services.